Time;durP1;ratioP1;P1;durP2;ratioP2;P2;SDS_P1;SDS_P2;PMS_P1;PMS_P2;Temp;Humidity;BMP_temperature;BMP_pressure;BME280_temperature;BME280_humidity;BME280_pressure;Samples;Min_cycle;Max_cycle;Signal;HPM_P1;HPM_P2
2021/08/31 00:03:57;;;;;;;1.20;1.10;;;;;;;17.80;53.72;101571.34;4897428;29;20506;-77
2021/08/31 00:06:23;;;;;;;3.67;0.93;;;;;;;17.67;53.19;101549.84;4909563;29;21724;-75
2021/08/31 00:08:50;;;;;;;0.82;0.82;;;;;;;17.61;53.82;101543.53;4920058;29;20107;-78
2021/08/31 00:19:37;;;;;;;0.50;0.50;;;;;;;17.69;53.60;101566.16;4906491;29;20072;-79
2021/08/31 00:22:32;;;;;;;0.50;0.50;;;;;;;17.56;53.79;101551.84;4844486;29;21845;-78
2021/08/31 00:25:00;;;;;;;1.30;0.60;;;;;;;17.65;53.99;101570.63;4828146;29;20493;-78
2021/08/31 00:28:23;;;;;;;;;;;;;;;;;;;;;
2021/08/31 00:41:23;;;;;;;;;;;;;;;;;;;;;
2021/08/31 00:44:33;;;;;;;1.55;1.02;;;;;;;17.64;54.51;101586.41;4815215;29;20110;-78
2021/08/31 00:47:13;;;;;;;;;;;;;;;;;;;;;
2021/08/31 00:49:44;;;;;;;1.55;0.60;;;;;;;17.60;54.44;101577.81;4807252;29;20106;-76
2021/08/31 00:52:13;;;;;;;0.68;0.68;;;;;;;17.57;54.19;101574.81;4813942;29;20138;-78
2021/08/31 00:57:38;;;;;;;3.38;0.70;;;;;;;17.54;54.57;101573.44;4826931;29;20045;-76
2021/08/31 01:00:37;;;;;;;;;;;;;;;;;;;;;
2021/08/31 01:03:24;;;;;;;;;;;;;;;;;;;;;
2021/08/31 01:06:15;;;;;;;0.60;0.50;;;;;;;17.55;54.60;101577.88;4894736;29;20104;-79
2021/08/31 01:08:46;;;;;;;1.55;1.20;;;;;;;17.54;54.31;101576.22;4888305;29;20121;-78
2021/08/31 01:11:49;;;;;;;0.65;0.63;;;;;;;17.56;54.30;101562.91;4880503;28;20040;-76
2021/08/31 01:22:33;;;;;;;;;;;;;;;;;;;;;
2021/08/31 01:29:24;;;;;;;0.25;0.22;;;;;;;17.43;55.34;101585.66;4902114;29;20040;-75
2021/08/31 01:36:24;;;;;;;;;;;;;;;;;;;;;
2021/08/31 01:49:57;;;;;;;0.45;0.40;;;;;;;17.19;55.72;101568.94;4722270;30;20116;-74
2021/08/31 01:52:33;;;;;;;;;;;;;;;;;;;;;
2021/08/31 01:55:45;;;;;;;0.40;0.40;;;;;;;17.28;55.69;101590.16;4745814;30;20110;-74
2021/08/31 02:01:51;;;;;;;0.30;0.30;;;;;;;17.28;56.25;101589.31;4765994;30;20177;-75
2021/08/31 02:04:55;;;;;;;0.25;0.20;;;;;;;17.27;56.00;101595.97;4742117;30;20040;-73
2021/08/31 02:07:40;;;;;;;0.38;0.38;;;;;;;17.23;56.91;101598.47;4721875;30;20518;-73
2021/08/31 02:10:07;;;;;;;0.65;0.50;;;;;;;17.18;56.91;101584.66;4869560;29;20089;-73
2021/08/31 02:12:36;;;;;;;0.77;0.60;;;;;;;17.17;56.56;101582.19;4899901;29;20486;-73
2021/08/31 02:15:02;;;;;;;0.50;0.50;;;;;;;17.16;56.64;101591.59;4936330;29;20039;-72
2021/08/31 02:17:28;;;;;;;0.32;0.30;;;;;;;17.19;57.07;101602.91;4929765;28;20059;-72
2021/08/31 02:19:56;;;;;;;1.05;0.93;;;;;;;17.15;57.21;101599.03;4923301;28;20374;-72
2021/08/31 02:22:22;;;;;;;0.50;0.30;;;;;;;17.15;57.58;101596.28;4942507;29;20089;-72
2021/08/31 02:24:48;;;;;;;0.32;0.30;;;;;;;17.19;56.84;101605.66;4938274;28;20134;-73
2021/08/31 02:27:14;;;;;;;0.80;0.40;;;;;;;17.14;57.08;101594.63;4936327;29;20028;-74
2021/08/31 02:29:40;;;;;;;0.65;0.40;;;;;;;17.16;57.14;101606.25;4933685;29;20039;-74
2021/08/31 02:32:06;;;;;;;0.65;0.45;;;;;;;17.13;57.59;101606.81;4920649;28;20032;-73
2021/08/31 02:34:33;;;;;;;1.95;0.90;;;;;;;17.10;57.63;101605.44;4922091;29;20034;-72
2021/08/31 02:36:59;;;;;;;0.43;0.43;;;;;;;17.08;57.66;101604.03;4955843;28;20078;-73
2021/08/31 02:39:26;;;;;;;2.78;1.00;;;;;;;17.06;57.89;101609.84;4938500;29;20035;-73
2021/08/31 02:41:52;;;;;;;0.75;0.50;;;;;;;17.06;58.08;101597.97;4956986;28;20020;-73
2021/08/31 02:44:34;;;;;;;0.35;0.35;;;;;;;17.10;57.73;101610.13;4927927;29;20050;-73
2021/08/31 02:47:03;;;;;;;0.80;0.70;;;;;;;16.98;58.26;101590.25;4945312;28;20047;-72
2021/08/31 02:49:32;;;;;;;0.50;0.50;;;;;;;16.99;58.27;101595.50;4933135;29;20426;-72
2021/08/31 02:52:00;;;;;;;0.47;0.43;;;;;;;17.01;57.97;101600.75;4958987;28;20026;-74
2021/08/31 02:54:28;;;;;;;0.32;0.32;;;;;;;16.95;57.95;101601.88;4956810;28;20075;-75
2021/08/31 02:57:01;;;;;;;0.40;0.40;;;;;;;16.97;57.82;101605.19;4951289;28;20027;-74
2021/08/31 02:59:27;;;;;;;0.47;0.47;;;;;;;16.93;57.84;101605.75;4957779;28;20031;-75
2021/08/31 03:02:04;;;;;;;0.40;0.30;;;;;;;16.93;58.04;101594.69;4951548;28;20030;-75
2021/08/31 03:04:31;;;;;;;0.47;0.40;;;;;;;16.91;58.33;101596.91;4956044;28;20054;-74
2021/08/31 03:06:56;;;;;;;0.40;0.40;;;;;;;16.89;58.20;101595.53;4957797;28;20023;-75
2021/08/31 03:09:22;;;;;;;0.28;0.28;;;;;;;16.79;58.50;101585.28;4947124;28;20423;-74
2021/08/31 03:11:49;;;;;;;0.30;0.20;;;;;;;16.86;58.54;101599.66;4962344;28;20445;-75
2021/08/31 03:14:19;;;;;;;0.40;0.20;;;;;;;16.80;58.43;101589.72;4966642;28;20031;-74
2021/08/31 03:16:50;;;;;;;0.38;0.28;;;;;;;16.78;58.65;101603.00;4950740;28;20054;-73
2021/08/31 03:19:23;;;;;;;0.45;0.30;;;;;;;16.79;58.59;101604.63;4960504;28;20035;-72
2021/08/31 03:21:48;;;;;;;0.55;0.25;;;;;;;16.79;58.67;101614.88;4952784;28;20114;-73
2021/08/31 03:24:17;;;;;;;0.35;0.35;;;;;;;16.73;58.89;101605.75;4928193;29;20118;-70
2021/08/31 03:26:43;;;;;;;0.43;0.43;;;;;;;16.72;58.66;101607.69;4965367;28;20043;-71
2021/08/31 03:29:09;;;;;;;4.63;0.30;;;;;;;16.65;59.31;101598.06;4975950;28;20027;-72
2021/08/31 03:31:34;;;;;;;0.30;0.22;;;;;;;16.61;58.85;101591.44;4976719;28;20055;-72
2021/08/31 03:34:00;;;;;;;0.30;0.30;;;;;;;16.63;59.45;101594.72;4970963;28;20059;-72
2021/08/31 03:36:25;;;;;;;0.63;0.60;;;;;;;16.63;59.25;101597.50;4945108;28;20549;-72
2021/08/31 03:38:51;;;;;;;0.60;0.47;;;;;;;16.62;59.55;101595.81;4981475;28;20026;-71
2021/08/31 03:41:16;;;;;;;0.40;0.35;;;;;;;16.60;59.78;101601.63;4975124;28;20672;-72
2021/08/31 03:43:41;;;;;;;0.40;0.40;;;;;;;16.56;59.59;101601.38;4955004;28;20035;-73
2021/08/31 03:46:07;;;;;;;0.60;0.40;;;;;;;16.61;59.93;101605.25;4957968;28;20054;-74
2021/08/31 03:48:32;;;;;;;0.28;0.28;;;;;;;16.56;59.89;101609.66;4981064;28;20413;-73
2021/08/31 03:50:58;;;;;;;1.27;0.50;;;;;;;16.61;59.81;101608.00;4962814;28;20026;-72
2021/08/31 03:53:23;;;;;;;0.52;0.52;;;;;;;16.61;59.99;101613.53;4982487;28;20042;-72
2021/08/31 03:55:49;;;;;;;0.57;0.45;;;;;;;16.65;60.02;101615.44;4969018;28;20106;-72
2021/08/31 03:58:14;;;;;;;0.60;0.52;;;;;;;16.64;59.88;101604.69;4956475;28;20614;-72
2021/08/31 04:00:39;;;;;;;0.50;0.40;;;;;;;16.65;59.97;101603.56;4956885;28;20034;-73
2021/08/31 04:03:05;;;;;;;0.30;0.30;;;;;;;16.63;59.86;101605.78;4974152;28;20382;-72
2021/08/31 04:05:30;;;;;;;0.22;0.20;;;;;;;16.61;59.93;101608.00;4963490;28;20034;-74
2021/08/31 04:07:56;;;;;;;0.40;0.30;;;;;;;16.56;60.24;101609.66;4976245;28;20027;-74
2021/08/31 04:10:22;;;;;;;0.50;0.50;;;;;;;16.54;60.37;101609.13;4949692;28;20022;-74
2021/08/31 04:12:47;;;;;;;2.63;0.40;;;;;;;16.53;59.94;101612.97;4975116;28;20030;-74
2021/08/31 04:15:13;;;;;;;0.45;0.20;;;;;;;16.51;60.05;101612.41;4960930;28;20026;-74
2021/08/31 04:17:39;;;;;;;0.22;0.20;;;;;;;16.49;60.08;101617.38;4975565;28;20042;-74
2021/08/31 04:20:06;;;;;;;0.57;0.28;;;;;;;16.40;60.30;101597.78;4969494;28;20034;-74
2021/08/31 04:22:32;;;;;;;0.20;0.20;;;;;;;16.47;59.86;101614.09;4969369;28;20386;-72
2021/08/31 04:24:57;;;;;;;0.17;0.17;;;;;;;16.47;60.26;101618.75;4974660;28;20031;-72
2021/08/31 04:27:22;;;;;;;0.20;0.20;;;;;;;16.47;60.23;101627.88;4978832;28;20027;-72
2021/08/31 04:29:48;;;;;;;0.30;0.30;;;;;;;16.46;59.97;101623.47;4945887;28;20031;-72
2021/08/31 04:32:13;;;;;;;0.28;0.28;;;;;;;16.45;60.35;101621.81;4963558;28;20050;-74
2021/08/31 04:34:39;;;;;;;0.90;0.20;;;;;;;16.45;60.31;101615.47;4960223;28;21454;-72
2021/08/31 04:37:08;;;;;;;0.28;0.20;;;;;;;16.45;60.03;101621.81;4962541;28;20122;-74
2021/08/31 04:39:36;;;;;;;0.70;0.70;;;;;;;16.39;60.51;101618.22;4951024;28;20055;-74
2021/08/31 04:42:03;;;;;;;2.50;0.40;;;;;;;16.44;60.39;101620.16;4972757;28;20039;-74
2021/08/31 04:44:33;;;;;;;0.30;0.30;;;;;;;16.42;60.50;101622.34;4972913;28;20035;-75
2021/08/31 04:47:00;;;;;;;0.20;0.20;;;;;;;16.45;60.52;101629.25;4948797;28;20065;-74
2021/08/31 04:49:30;;;;;;;0.50;0.40;;;;;;;16.41;61.02;101626.22;4971409;28;20038;-73
2021/08/31 04:51:56;;;;;;;0.30;0.30;;;;;;;16.40;60.70;101621.81;4945184;28;20090;-73
2021/08/31 04:54:22;;;;;;;0.30;0.30;;;;;;;16.40;60.78;101624.56;4951446;28;20039;-72
2021/08/31 04:56:47;;;;;;;0.55;0.35;;;;;;;16.37;60.54;101631.47;4927431;28;20050;-72
2021/08/31 04:59:13;;;;;;;0.40;0.30;;;;;;;16.32;60.42;101619.59;4951911;28;20040;-72
2021/08/31 05:01:39;;;;;;;0.40;0.30;;;;;;;16.32;60.86;101622.34;4944049;28;20023;-74
2021/08/31 05:04:04;;;;;;;0.30;0.30;;;;;;;16.29;60.46;101629.25;4943462;28;20038;-75
2021/08/31 05:09:42;;;;;;;;;;;;;;;;;;;;;
2021/08/31 05:12:38;;;;;;;;;;;;;;;;;;;;;
2021/08/31 05:15:27;;;;;;;0.47;0.45;;;;;;;16.15;60.92;101615.19;4961309;28;20057;-73
2021/08/31 05:18:16;;;;;;;0.95;0.30;;;;;;;16.29;60.85;101642.22;4943554;28;20051;-73
2021/08/31 05:20:43;;;;;;;0.63;0.50;;;;;;;16.14;60.83;101610.75;4958098;28;20038;-73
2021/08/31 05:23:29;;;;;;;0.50;0.40;;;;;;;16.21;61.23;101627.06;4960304;28;20094;-73
2021/08/31 05:25:58;;;;;;;0.35;0.35;;;;;;;16.26;61.14;101646.38;4961975;28;20027;-73
2021/08/31 05:28:31;;;;;;;0.75;0.47;;;;;;;16.23;61.00;101635.88;4945495;28;20038;-73
2021/08/31 05:31:00;;;;;;;0.57;0.57;;;;;;;16.20;61.21;101640.00;4956274;28;20049;-74
2021/08/31 05:33:29;;;;;;;0.65;0.40;;;;;;;16.18;61.12;101639.47;4970024;28;20466;-73
2021/08/31 05:35:54;;;;;;;0.30;0.30;;;;;;;16.17;61.34;101632.28;4974330;28;20027;-73
2021/08/31 05:39:01;;;;;;;;;;;;;;;;;;;;;
2021/08/31 05:42:18;;;;;;;1.85;0.50;;;;;;;16.26;61.22;101648.31;4964148;28;20142;-74
2021/08/31 05:45:00;;;;;;;0.88;0.50;;;;;;;16.21;61.64;101655.47;4970096;28;20393;-73
2021/08/31 05:47:26;;;;;;;2.80;0.73;;;;;;;16.07;61.29;101624.00;4944479;28;20104;-73
2021/08/31 05:49:51;;;;;;;0.55;0.50;;;;;;;16.14;61.65;101643.88;4963177;28;20019;-73
2021/08/31 05:52:40;;;;;;;0.85;0.85;;;;;;;16.15;61.44;101642.78;4944198;28;20042;-74
2021/08/31 05:55:09;;;;;;;0.50;0.35;;;;;;;16.12;61.83;101646.09;4961329;28;20064;-73
2021/08/31 05:58:32;;;;;;;;;;;;;;;;;;;;;
2021/08/31 06:04:07;;;;;;;0.82;0.82;;;;;;;16.24;61.83;101656.84;4969730;28;20052;-73
2021/08/31 06:06:33;;;;;;;0.40;0.40;;;;;;;16.27;61.67;101653.56;4972451;28;20473;-74
2021/08/31 06:08:58;;;;;;;0.60;0.60;;;;;;;16.37;61.88;101666.53;4964091;28;20026;-71
2021/08/31 06:11:51;;;;;;;0.52;0.30;;;;;;;16.35;61.42;101660.44;4943681;28;20027;-72
2021/08/31 06:14:26;;;;;;;0.20;0.20;;;;;;;16.43;61.46;101668.19;4949593;28;20054;-72
2021/08/31 06:17:11;;;;;;;0.50;0.50;;;;;;;16.50;61.43;101679.78;4957829;28;20060;-74
2021/08/31 06:19:51;;;;;;;1.85;0.50;;;;;;;16.50;61.63;101676.19;4959725;28;20121;-74
2021/08/31 06:25:17;;;;;;;0.73;0.28;;;;;;;16.61;61.29;101679.78;4990812;28;20054;-72
2021/08/31 06:27:42;;;;;;;0.30;0.20;;;;;;;16.65;61.06;101680.91;4993285;28;20035;-72
2021/08/31 06:30:08;;;;;;;0.63;0.30;;;;;;;16.66;60.99;101683.38;4979045;28;20045;-77
2021/08/31 06:32:34;;;;;;;4.03;0.57;;;;;;;16.70;60.94;101686.41;4977682;28;20038;-77
2021/08/31 06:35:01;;;;;;;0.40;0.40;;;;;;;16.74;60.67;101684.75;4968395;28;20033;-76
2021/08/31 06:37:35;;;;;;;0.28;0.20;;;;;;;16.71;60.92;101680.59;4958182;28;20129;-74
2021/08/31 06:40:41;;;;;;;0.95;0.20;;;;;;;16.78;60.68;101688.63;4980504;28;20113;-75
2021/08/31 06:43:33;;;;;;;;;;;;;;;;;;;;;
2021/08/31 06:46:06;;;;;;;1.30;0.28;;;;;;;16.81;60.73;101679.78;4953135;29;20477;-75
2021/08/31 06:55:48;;;;;;;1.27;0.45;;;;;;;17.00;60.29;101684.78;4858489;29;20550;-73
2021/08/31 06:58:16;;;;;;;0.50;0.40;;;;;;;16.92;60.42;101673.19;4876347;28;20081;-73
2021/08/31 07:00:49;;;;;;;0.30;0.30;;;;;;;16.97;60.23;101682.53;4994106;28;20034;-70
2021/08/31 07:03:15;;;;;;;1.02;0.47;;;;;;;16.99;60.60;101685.88;4977438;28;20492;-71
2021/08/31 07:05:40;;;;;;;0.50;0.47;;;;;;;17.06;60.44;101686.41;4956673;28;20034;-72
2021/08/31 07:08:08;;;;;;;0.50;0.50;;;;;;;17.14;60.40;101682.25;4995334;28;20034;-73
2021/08/31 07:10:37;;;;;;;0.30;0.30;;;;;;;17.21;60.11;101689.13;4993876;28;20041;-74
2021/08/31 07:13:02;;;;;;;0.85;0.50;;;;;;;17.32;60.51;101689.09;4961715;28;20457;-73
2021/08/31 07:15:28;;;;;;;2.83;0.85;;;;;;;17.42;59.47;101691.81;4980161;28;20061;-73
2021/08/31 07:17:54;;;;;;;0.50;0.50;;;;;;;17.50;60.02;101696.78;4960836;28;20069;-72
2021/08/31 07:20:19;;;;;;;0.95;0.77;;;;;;;17.55;59.71;101694.03;4965531;28;20031;-72
2021/08/31 07:22:45;;;;;;;1.75;0.52;;;;;;;17.67;59.44;101695.59;4996587;28;20457;-74
2021/08/31 07:25:11;;;;;;;1.52;0.40;;;;;;;17.77;59.44;101701.09;4957089;28;20498;-73
2021/08/31 07:27:36;;;;;;;0.88;0.88;;;;;;;17.84;59.02;101698.84;4962275;28;20264;-74
2021/08/31 07:30:03;;;;;;;0.68;0.55;;;;;;;17.94;59.15;101693.28;4971611;28;20034;-74
2021/08/31 07:32:28;;;;;;;3.05;0.93;;;;;;;18.05;58.98;101690.50;4975958;28;20062;-74
2021/08/31 07:34:54;;;;;;;0.55;0.55;;;;;;;18.13;58.64;101695.41;4976914;28;20034;-74
2021/08/31 07:37:19;;;;;;;1.05;0.60;;;;;;;18.22;58.62;101696.44;4968927;28;20031;-73
2021/08/31 07:39:45;;;;;;;0.85;0.85;;;;;;;18.27;58.25;101699.19;4971245;28;20031;-73
2021/08/31 07:42:11;;;;;;;1.30;1.10;;;;;;;18.33;58.07;101696.41;4958125;28;20656;-73
2021/08/31 07:48:00;;;;;;;0.98;0.90;;;;;;;18.56;57.88;101695.69;4971141;28;20090;-73
2021/08/31 07:50:35;;;;;;;1.35;0.70;;;;;;;18.53;57.24;101679.63;4963846;28;20089;-73
2021/08/31 07:53:03;;;;;;;0.40;0.40;;;;;;;18.69;57.16;101696.09;4974935;28;20660;-73
2021/08/31 07:55:31;;;;;;;0.90;0.85;;;;;;;18.76;56.70;101693.84;4977182;28;20035;-74
2021/08/31 07:57:57;;;;;;;0.80;0.80;;;;;;;18.90;56.36;101700.38;4972454;28;20022;-74
2021/08/31 08:00:22;;;;;;;1.45;1.35;;;;;;;18.87;56.13;101700.97;4978599;28;20033;-75
2021/08/31 08:02:48;;;;;;;1.00;0.80;;;;;;;19.01;55.53;101707.50;4960971;28;20049;-74
2021/08/31 08:05:13;;;;;;;0.80;0.80;;;;;;;19.10;55.95;101704.06;4980078;28;20042;-75
2021/08/31 08:07:39;;;;;;;4.28;0.90;;;;;;;19.17;55.54;101704.56;4979217;28;20377;-75
2021/08/31 08:10:15;;;;;;;1.55;1.05;;;;;;;19.33;55.01;101711.63;4970836;28;20030;-72
2021/08/31 08:19:38;;;;;;;0.70;0.70;;;;;;;19.67;53.96;101696.78;4871019;29;20114;-74
2021/08/31 08:22:44;;;;;;;;;;;;;;;;;;;;;
2021/08/31 08:25:13;;;;;;;2.40;1.08;;;;;;;19.96;53.17;101698.66;4978536;28;20102;-72
2021/08/31 08:27:39;;;;;;;1.02;0.90;;;;;;;20.12;52.99;101723.41;4978669;28;20061;-72
2021/08/31 08:30:08;;;;;;;0.90;0.77;;;;;;;20.25;53.37;101714.34;4973280;28;20039;-73
2021/08/31 08:32:48;;;;;;;2.05;0.93;;;;;;;20.46;52.74;101717.63;4979762;28;20041;-72
2021/08/31 08:35:15;;;;;;;0.63;0.63;;;;;;;20.66;52.77;101724.88;4968705;28;20078;-73
2021/08/31 08:37:41;;;;;;;1.55;0.77;;;;;;;20.83;52.26;101720.69;4964788;28;20030;-73
2021/08/31 08:40:07;;;;;;;0.50;0.50;;;;;;;20.86;51.77;101731.19;4947187;28;20101;-73
2021/08/31 08:42:33;;;;;;;0.70;0.50;;;;;;;20.89;51.63;101725.84;4982323;28;20035;-74
2021/08/31 08:44:59;;;;;;;1.35;0.88;;;;;;;20.93;51.50;101737.19;4954953;28;20049;-74
2021/08/31 08:47:48;;;;;;;0.70;0.70;;;;;;;21.03;51.62;101725.88;4965434;28;20101;-75
2021/08/31 08:50:57;;;;;;;0.50;0.50;;;;;;;21.00;51.26;101729.28;4973986;28;20046;-74
2021/08/31 09:08:23;;;;;;;0.85;0.82;;;;;;;20.46;50.54;101733.47;4789530;29;20039;-78
2021/08/31 09:14:33;;;;;;;1.85;0.80;;;;;;;20.57;51.15;101763.59;4746410;30;20491;-75
2021/08/31 09:17:04;;;;;;;0.47;0.47;;;;;;;20.71;51.36;101763.69;4769865;29;20046;-76
2021/08/31 09:19:33;;;;;;;0.52;0.52;;;;;;;20.84;51.11;101756.53;4861841;29;20112;-77
2021/08/31 09:22:13;;;;;;;1.10;1.00;;;;;;;20.99;50.77;101752.66;4870363;29;20033;-76
2021/08/31 09:25:00;;;;;;;0.90;0.50;;;;;;;21.16;50.43;101762.38;4899908;28;20042;-76
2021/08/31 09:27:40;;;;;;;1.05;0.95;;;;;;;21.15;50.37;101755.16;4960932;28;20042;-75
2021/08/31 09:30:27;;;;;;;1.00;1.00;;;;;;;21.19;50.30;101759.00;4962117;28;20039;-77
2021/08/31 09:33:07;;;;;;;0.93;0.65;;;;;;;21.34;50.08;101758.69;5013519;28;20029;-77
2021/08/31 09:35:43;;;;;;;1.98;0.93;;;;;;;21.35;49.67;101743.66;5020595;28;20025;-76
2021/08/31 09:38:23;;;;;;;0.55;0.55;;;;;;;21.48;50.06;101752.31;4999685;28;20026;-77
2021/08/31 09:40:52;;;;;;;0.85;0.75;;;;;;;21.57;49.64;101744.94;4982194;28;20018;-76
2021/08/31 09:43:22;;;;;;;0.85;0.85;;;;;;;21.75;49.56;101755.13;5000640;28;20022;-76
2021/08/31 09:45:54;;;;;;;0.85;0.80;;;;;;;21.86;49.10;101757.72;4978055;28;20026;-77
2021/08/31 09:48:20;;;;;;;0.90;0.70;;;;;;;;;;4988809;28;20033;-77
2021/08/31 09:50:58;;;;;;;0.95;0.73;;;;;;;22.03;48.68;101752.31;5024355;28;20026;-76
2021/08/31 09:53:35;;;;;;;0.63;0.60;;;;;;;22.21;48.66;101764.47;5002864;28;21992;-77
2021/08/31 09:56:03;;;;;;;0.88;0.85;;;;;;;22.23;48.36;101762.19;4956218;28;20051;-76
2021/08/31 10:02:27;;;;;;;;;;;;;;;;;;;;;
2021/08/31 10:11:45;;;;;;;1.38;0.60;;;;;;;22.35;48.29;101775.63;4867355;29;20041;-75
2021/08/31 10:17:28;;;;;;;1.42;0.82;;;;;;;22.35;47.46;101753.31;4885301;29;20047;-76
2021/08/31 10:20:22;;;;;;;0.80;0.50;;;;;;;22.37;47.25;101778.94;4884014;29;20029;-77
2021/08/31 10:22:56;;;;;;;3.45;0.75;;;;;;;22.11;47.34;101771.09;4857046;29;20070;-77
2021/08/31 10:25:26;;;;;;;0.80;0.75;;;;;;;21.93;47.41;101769.25;4879333;29;20101;-77
2021/08/31 10:27:54;;;;;;;0.57;0.50;;;;;;;21.72;47.94;101758.53;4872494;29;20077;-77
2021/08/31 10:31:19;;;;;;;0.57;0.57;;;;;;;21.57;48.39;101762.47;4876989;29;20587;-77
2021/08/31 10:33:47;;;;;;;0.82;0.75;;;;;;;21.47;48.67;101761.81;4852591;29;20119;-77
2021/08/31 10:36:12;;;;;;;0.75;0.60;;;;;;;21.56;49.18;101777.50;4867539;29;20528;-77
2021/08/31 10:38:51;;;;;;;0.90;0.80;;;;;;;21.68;49.40;101777.00;4892750;29;20056;-77
2021/08/31 10:41:47;;;;;;;0.95;0.70;;;;;;;22.10;48.93;101791.72;4895975;29;20025;-77
2021/08/31 10:44:41;;;;;;;0.60;0.50;;;;;;;22.29;48.16;101782.41;4902003;29;20078;-76
2021/08/31 10:47:18;;;;;;;0.80;0.80;;;;;;;22.23;48.04;101772.53;4874635;29;20028;-76
2021/08/31 10:57:33;;;;;;;1.00;0.90;;;;;;;22.42;47.77;101781.59;4900115;29;20411;-75
2021/08/31 11:08:40;;;;;;;0.55;0.35;;;;;;;23.39;47.04;101790.66;4950968;28;20090;-78
2021/08/31 11:11:15;;;;;;;1.40;0.40;;;;;;;23.34;46.25;101777.69;4942479;28;20035;-78
2021/08/31 11:13:52;;;;;;;0.50;0.50;;;;;;;23.41;45.92;101785.56;4981038;28;20035;-77
2021/08/31 11:16:55;;;;;;;0.85;0.60;;;;;;;23.45;45.68;101790.22;4972360;28;20775;-76
2021/08/31 11:20:26;;;;;;;0.93;0.50;;;;;;;23.39;45.86;101782.28;4980673;28;20041;-78
2021/08/31 11:24:15;;;;;;;;;;;;;;;;;;;;;
2021/08/31 11:27:46;;;;;;;;;;;;;;;;;;;;;
2021/08/31 11:31:03;;;;;;;;;;;;;;;;;;;;;
2021/08/31 11:37:50;;;;;;;0.38;0.30;;;;;;;23.47;45.87;101770.34;4806827;29;20717;-78
2021/08/31 11:40:32;;;;;;;0.47;0.47;;;;;;;23.43;45.48;101789.69;4785277;29;20050;-74
2021/08/31 11:43:35;;;;;;;;;;;;;;;;;;;;;
2021/08/31 11:46:56;;;;;;;;;;;;;;;;;;;;;
2021/08/31 11:50:18;;;;;;;0.35;0.35;;;;;;;22.87;46.87;101779.97;4749563;30;20123;-74
2021/08/31 11:53:00;;;;;;;1.73;0.50;;;;;;;23.45;47.34;101784.63;4720699;30;20041;-73
2021/08/31 11:56:16;;;;;;;1.15;0.55;;;;;;;25.00;46.45;101799.56;4771654;29;20403;-74
2021/08/31 12:02:30;;;;;;;1.85;0.70;;;;;;;26.36;40.31;101804.50;4768415;29;20073;-75
2021/08/31 12:05:03;;;;;;;0.57;0.57;;;;;;;26.02;40.61;101805.53;4875178;29;20111;-73
2021/08/31 12:07:51;;;;;;;1.17;0.80;;;;;;;25.68;41.41;101787.72;4976706;28;20035;-73
2021/08/31 12:10:24;;;;;;;0.35;0.35;;;;;;;25.52;41.68;101791.06;4980734;28;20053;-74
2021/08/31 12:12:51;;;;;;;0.47;0.47;;;;;;;25.37;42.02;101791.63;4978289;28;20035;-74
2021/08/31 12:15:23;;;;;;;0.43;0.43;;;;;;;25.17;41.31;101785.53;4975007;28;20031;-73
2021/08/31 12:17:59;;;;;;;4.03;0.73;;;;;;;24.87;42.07;101802.22;4964108;28;20647;-74
2021/08/31 12:20:27;;;;;;;1.15;1.05;;;;;;;24.40;42.28;101796.44;4982606;28;20090;-73
2021/08/31 12:22:57;;;;;;;0.60;0.60;;;;;;;24.01;42.71;101789.78;4975265;28;20027;-74
2021/08/31 12:25:22;;;;;;;0.88;0.75;;;;;;;23.73;43.40;101795.59;4971528;28;20421;-73
2021/08/31 12:27:53;;;;;;;1.10;0.70;;;;;;;23.64;43.77;101797.50;4976446;28;20030;-74
2021/08/31 12:30:44;;;;;;;0.63;0.60;;;;;;;23.60;43.55;101790.94;4969606;28;20466;-74
2021/08/31 12:33:13;;;;;;;1.25;0.82;;;;;;;23.61;43.79;101798.16;4980042;28;20042;-74
2021/08/31 12:35:46;;;;;;;1.92;0.88;;;;;;;23.58;44.26;101782.88;4966362;28;20454;-73
2021/08/31 12:38:25;;;;;;;0.77;0.70;;;;;;;23.51;44.07;101783.34;4969135;28;20047;-74
2021/08/31 12:41:02;;;;;;;5.07;0.70;;;;;;;23.32;44.22;101802.31;4987055;28;20140;-74
2021/08/31 12:43:30;;;;;;;1.10;1.10;;;;;;;22.87;44.38;101791.13;4978627;28;20035;-74
2021/08/31 12:45:58;;;;;;;0.90;0.90;;;;;;;22.57;45.60;101787.94;4975050;28;20101;-74
2021/08/31 12:48:36;;;;;;;0.98;0.70;;;;;;;22.37;45.59;101790.06;4974219;28;20378;-75
2021/08/31 12:51:05;;;;;;;0.50;0.50;;;;;;;22.28;45.97;101797.47;4966390;28;20034;-74
2021/08/31 12:53:41;;;;;;;0.85;0.57;;;;;;;22.36;46.56;101787.59;4959020;28;20428;-74
2021/08/31 12:56:11;;;;;;;0.73;0.40;;;;;;;22.55;46.36;101788.25;5014600;28;20092;-72
2021/08/31 12:58:45;;;;;;;0.40;0.30;;;;;;;22.71;46.40;101794.28;5018047;28;20489;-75
2021/08/31 13:01:54;;;;;;;0.45;0.40;;;;;;;22.78;45.35;101783.53;5005449;28;20056;-74
2021/08/31 13:04:20;;;;;;;0.40;0.40;;;;;;;22.55;45.71;101771.53;5003810;28;20040;-74
2021/08/31 13:06:53;;;;;;;0.57;0.47;;;;;;;22.45;45.57;101774.56;5017875;28;20101;-74
2021/08/31 13:09:20;;;;;;;0.70;0.70;;;;;;;22.55;45.95;101784.66;5014700;28;20054;-74
2021/08/31 13:11:50;;;;;;;0.68;0.68;;;;;;;22.52;46.12;101774.13;5020360;28;20018;-74
2021/08/31 13:14:21;;;;;;;0.75;0.75;;;;;;;22.67;45.92;101776.53;4994661;28;20022;-74
2021/08/31 13:20:28;;;;;;;0.65;0.65;;;;;;;23.11;44.55;101763.75;5019041;28;20056;-74
2021/08/31 13:22:54;;;;;;;0.50;0.50;;;;;;;23.06;45.09;101757.47;5018794;28;20368;-73
2021/08/31 13:25:29;;;;;;;;;;;;;;;;;;;;;
2021/08/31 13:27:57;;;;;;;0.40;0.40;;;;;;;22.81;44.75;101790.44;5018431;28;20097;-74
2021/08/31 13:30:23;;;;;;;0.40;0.40;;;;;;;22.38;45.26;101779.75;4998625;28;21043;-74
2021/08/31 13:32:50;;;;;;;0.88;0.50;;;;;;;22.10;45.42;101788.94;5021392;28;20006;-74
2021/08/31 13:35:18;;;;;;;0.88;0.30;;;;;;;21.81;45.96;101777.31;4978458;28;20030;-75
2021/08/31 13:37:49;;;;;;;0.50;0.50;;;;;;;21.63;46.33;101781.88;4985995;28;20033;-75
2021/08/31 13:40:15;;;;;;;0.28;0.28;;;;;;;21.40;46.78;101785.28;5002493;28;20345;-74
2021/08/31 13:42:42;;;;;;;0.28;0.28;;;;;;;21.32;47.47;101787.94;4996850;28;20073;-73
2021/08/31 13:45:08;;;;;;;0.40;0.40;;;;;;;21.21;47.36;101793.69;5015274;28;20038;-74
2021/08/31 13:47:33;;;;;;;0.50;0.40;;;;;;;21.16;47.54;101791.03;5014147;28;20030;-75
2021/08/31 13:49:59;;;;;;;0.40;0.40;;;;;;;21.18;47.55;101793.50;4985008;28;20022;-76
2021/08/31 13:52:24;;;;;;;0.20;0.20;;;;;;;21.14;47.82;101787.69;5000582;28;20069;-74
2021/08/31 13:54:50;;;;;;;0.20;0.20;;;;;;;21.10;48.09;101790.28;4999603;28;20037;-75
2021/08/31 13:57:15;;;;;;;0.30;0.30;;;;;;;21.04;48.23;101771.19;5002287;28;20030;-74
2021/08/31 14:00:29;;;;;;;0.30;0.30;;;;;;;20.95;48.47;101759.13;5016079;28;20116;-74
2021/08/31 14:03:15;;;;;;;0.52;0.40;;;;;;;21.17;48.16;101781.53;4990924;28;20045;-76
2021/08/31 14:05:41;;;;;;;0.30;0.30;;;;;;;21.31;48.53;101780.75;5000580;28;20424;-74
2021/08/31 14:08:10;;;;;;;0.43;0.20;;;;;;;21.50;48.18;101772.34;4982630;28;20025;-74
2021/08/31 14:10:37;;;;;;;0.30;0.30;;;;;;;21.65;48.33;101766.47;4998644;28;20026;-74
2021/08/31 14:13:05;;;;;;;0.32;0.32;;;;;;;21.93;47.58;101774.81;5007658;28;20038;-75
2021/08/31 14:15:40;;;;;;;0.40;0.40;;;;;;;22.10;47.38;101772.22;5015037;28;20034;-73
2021/08/31 14:18:06;;;;;;;0.30;0.30;;;;;;;22.22;47.16;101766.09;5002433;28;20109;-73
2021/08/31 14:20:35;;;;;;;0.22;0.20;;;;;;;22.43;47.00;101765.72;5018232;28;20041;-74
2021/08/31 14:23:00;;;;;;;1.83;0.50;;;;;;;22.54;46.73;101763.50;5015888;28;20025;-74
2021/08/31 14:25:36;;;;;;;0.40;0.40;;;;;;;22.61;46.68;101763.88;5012285;28;20460;-73
2021/08/31 14:28:01;;;;;;;;;;;;;;;22.94;45.81;101780.34;4994318;28;20034;-73
2021/08/31 14:30:33;;;;;;;0.30;0.30;;;;;;;22.90;46.13;101762.63;5014442;28;19901;-74
2021/08/31 14:32:59;;;;;;;1.23;0.60;;;;;;;23.12;45.76;101765.41;4992587;28;20088;-74
2021/08/31 14:35:32;;;;;;;0.50;0.40;;;;;;;23.68;46.60;101765.84;4980744;28;20488;-74
2021/08/31 14:38:00;;;;;;;3.10;0.40;;;;;;;24.48;45.66;101758.44;5013253;28;20052;-74
2021/08/31 14:40:25;;;;;;;0.40;0.40;;;;;;;25.74;44.76;101763.94;4993405;28;20056;-76
2021/08/31 14:42:51;;;;;;;0.40;0.30;;;;;;;26.52;42.07;101751.41;5003963;28;20029;-74
2021/08/31 14:45:19;;;;;;;0.30;0.30;;;;;;;27.05;41.41;101756.53;5009667;28;20030;-74
2021/08/31 14:47:44;;;;;;;0.40;0.40;;;;;;;27.41;40.33;101754.97;4996066;28;20037;-72
2021/08/31 14:50:11;;;;;;;0.45;0.32;;;;;;;27.69;39.33;101755.13;4999006;28;20037;-73